Terminal Aerodrome Forecast
Issued by NWS Wichita, KS

Home | Current Version | Previous Version | Graphics & Text | Print | Product List | Glossary On
Versions: 1 2 3 4 5 6 7 8 9 10 11 12 13 14 15 16 17 18 19 20 21 22 23 24 25 26 27
083
FTUS43 KICT 241129
TAFICT
TAF
KICT 241129Z 2412/2512 17020G30KT P6SM SCT060 SCT100
     FM241900 16018G26KT P6SM VCTS BKN045CB
     FM242300 16011KT P6SM VCTS BKN045CB
     FM250300 35017G25KT P6SM VCSH BKN025=

USA.gov is the U.S. government's official web portal to all federal, state and local government web resources and services.